createdAt,value
2022-11-27T00:01:19.694Z,97753.84
2022-11-27T00:03:46.599Z,97748.69
2022-11-27T00:06:13.762Z,97747.78
2022-11-27T00:08:40.152Z,97751.13
2022-11-27T00:11:11.766Z,97747.63
2022-11-27T00:13:38.187Z,97755.13
2022-11-27T00:16:04.870Z,97753.50
2022-11-27T00:18:31.405Z,97747.53
2022-11-27T00:21:02.228Z,97749.28
2022-11-27T00:23:28.657Z,97756.06
2022-11-27T00:25:55.131Z,97751.84
2022-11-27T00:28:21.629Z,97757.81
2022-11-27T00:30:48.124Z,97758.53
2022-11-27T00:33:14.582Z,97749.28
2022-11-27T00:35:42.322Z,97758.53
2022-11-27T00:38:08.867Z,97762.84
2022-11-27T00:40:35.657Z,97757.66
2022-11-27T00:43:02.059Z,97758.38
2022-11-27T00:45:28.637Z,97754.88
2022-11-27T00:47:55.134Z,97760.84
2022-11-27T00:50:21.763Z,97766.00
2022-11-27T00:52:48.341Z,97757.44
2022-11-27T00:55:14.942Z,97764.25
2022-11-27T00:57:41.387Z,97764.19
2022-11-27T01:00:08.129Z,97760.69
2022-11-27T01:02:34.579Z,97759.03
2022-11-27T01:05:01.033Z,97762.44
2022-11-27T01:07:27.720Z,97764.91
2022-11-27T01:09:54.239Z,97766.56
2022-11-27T01:12:20.825Z,97762.34
2022-11-27T01:14:47.235Z,97762.25
2022-11-27T01:17:13.647Z,97763.97
2022-11-27T01:19:40.037Z,97763.16
2022-11-27T01:22:06.505Z,97762.34
2022-11-27T01:24:32.931Z,97759.75
2022-11-27T01:26:59.379Z,97760.59
2022-11-27T01:29:25.857Z,97758.84
2022-11-27T01:31:52.482Z,97755.53
2022-11-27T01:34:18.987Z,97754.63
2022-11-27T01:36:45.531Z,97754.63
2022-11-27T01:39:18.644Z,97746.91
2022-11-27T01:41:45.284Z,97758.03
2022-11-27T01:44:24.112Z,97753.69
2022-11-27T01:46:50.597Z,97757.00
2022-11-27T01:49:30.873Z,97755.34
2022-11-27T01:52:16.927Z,97753.69
2022-11-27T01:54:55.100Z,97748.56
2022-11-27T01:57:22.746Z,97755.44
2022-11-27T01:59:49.292Z,97755.34
2022-11-27T02:02:15.875Z,97751.84
2022-11-27T02:04:42.661Z,97749.28
2022-11-27T02:07:09.581Z,97747.56
2022-11-27T02:09:36.252Z,97745.84
2022-11-27T02:12:02.852Z,97751.84
2022-11-27T02:14:37.658Z,97751.78
2022-11-27T02:17:19.588Z,97755.19
2022-11-27T02:20:04.658Z,97756.13
2022-11-27T02:22:50.033Z,97755.28
2022-11-27T02:25:25.257Z,97755.28
2022-11-27T02:27:54.459Z,97758.69
2022-11-27T02:30:21.114Z,97768.97
2022-11-27T02:32:51.712Z,97765.56
2022-11-27T02:35:19.339Z,97763.00
2022-11-27T02:37:47.040Z,97769.69
2022-11-27T02:40:14.462Z,97773.00
2022-11-27T02:42:45.287Z,97770.53
2022-11-27T02:45:13.201Z,97769.78
2022-11-27T02:47:40.371Z,97769.94
2022-11-27T02:50:10.408Z,97777.03
2022-11-27T02:52:36.828Z,97774.63
2022-11-27T02:55:04.289Z,97777.28
2022-11-27T02:57:30.696Z,97775.63
2022-11-27T02:59:57.251Z,97776.72
2022-11-27T03:02:27.005Z,97776.81
2022-11-27T03:04:54.757Z,97773.56
2022-11-27T03:07:26.954Z,97772.75
2022-11-27T03:09:53.931Z,97774.41
2022-11-27T03:12:20.487Z,97767.63
2022-11-27T03:14:46.978Z,97768.63
2022-11-27T03:17:19.748Z,97769.44
2022-11-27T03:19:48.831Z,97763.50
2022-11-27T03:22:16.427Z,97771.94
2022-11-27T03:24:43.298Z,97766.78
2022-11-27T03:27:10.240Z,97770.19
2022-11-27T03:29:40.878Z,97764.13
2022-11-27T03:32:07.303Z,97766.69
2022-11-27T03:34:33.785Z,97770.19
2022-11-27T03:37:00.559Z,97759.91
2022-11-27T03:39:48.965Z,97754.66
2022-11-27T03:42:33.813Z,97755.25
2022-11-27T03:45:08.022Z,97752.56
2022-11-27T03:47:53.482Z,97751.69
2022-11-27T03:50:20.069Z,97753.41
2022-11-27T03:52:49.509Z,97750.81
2022-11-27T03:55:17.684Z,97749.94
2022-11-27T03:57:53.952Z,97757.56
2022-11-27T04:00:20.559Z,97756.63
2022-11-27T04:02:47.841Z,97753.13
2022-11-27T04:05:14.720Z,97753.03
2022-11-27T04:07:41.339Z,97760.69
2022-11-27T04:10:08.120Z,97758.03
2022-11-27T04:12:34.539Z,97756.28
2022-11-27T04:15:00.977Z,97758.75
2022-11-27T04:17:27.467Z,97760.44
2022-11-27T04:19:54.031Z,97760.34
2022-11-27T04:22:20.566Z,97756.00
2022-11-27T04:24:46.976Z,97763.63
2022-11-27T04:27:13.460Z,97757.66
2022-11-27T04:29:39.952Z,97756.00
2022-11-27T04:32:06.448Z,97756.00
2022-11-27T04:34:33.130Z,97756.00
2022-11-27T04:36:59.598Z,97759.41
2022-11-27T04:39:26.217Z,97751.59
2022-11-27T04:41:57.798Z,97747.38
2022-11-27T04:44:24.395Z,97751.69
2022-11-27T04:46:50.919Z,97754.28
2022-11-27T04:49:17.503Z,97752.63
2022-11-27T04:51:44.132Z,97750.06
2022-11-27T04:54:10.769Z,97744.16
2022-11-27T04:56:37.409Z,97747.56
2022-11-27T04:59:04.180Z,97750.97
2022-11-27T05:01:30.605Z,97743.25
2022-11-27T05:03:57.034Z,97738.94
2022-11-27T05:06:23.608Z,97742.44
2022-11-27T05:08:50.046Z,97738.28
2022-11-27T05:11:16.733Z,97734.06
2022-11-27T05:13:43.362Z,97735.72
2022-11-27T05:16:09.916Z,97734.16
2022-11-27T05:18:36.422Z,97740.13
2022-11-27T05:21:03.886Z,97739.31
2022-11-27T05:23:30.627Z,97738.47
2022-11-27T05:25:57.165Z,97740.19
2022-11-27T05:28:26.849Z,97741.13
2022-11-27T05:30:53.601Z,97748.00
2022-11-27T05:33:20.027Z,97745.53
2022-11-27T05:35:46.475Z,97746.34
2022-11-27T05:38:12.925Z,97748.19
2022-11-27T05:40:39.454Z,97753.22
2022-11-27T05:43:05.851Z,97745.53
2022-11-27T05:45:32.432Z,97749.75
2022-11-27T05:47:59.063Z,97747.19
2022-11-27T05:50:25.473Z,97759.03
2022-11-27T05:52:51.895Z,97742.75
2022-11-27T05:55:18.334Z,97744.50
2022-11-27T05:57:44.787Z,97742.84
2022-11-27T06:00:11.547Z,97731.66
2022-11-27T06:02:38.133Z,97729.09
2022-11-27T06:05:04.730Z,97730.75
2022-11-27T06:07:31.401Z,97738.47
2022-11-27T06:09:58.051Z,97731.59
2022-11-27T06:12:24.492Z,97730.84
2022-11-27T06:14:50.944Z,97731.03
2022-11-27T06:17:17.410Z,97732.84
2022-11-27T06:19:43.904Z,97740.75
2022-11-27T06:22:10.381Z,97731.44
2022-11-27T06:24:36.839Z,97739.16
2022-11-27T06:27:03.316Z,97730.72
2022-11-27T06:29:29.806Z,97727.53
2022-11-27T06:31:56.373Z,97732.91
2022-11-27T06:34:23.292Z,97734.91
2022-11-27T06:36:50.893Z,97754.06
2022-11-27T06:39:17.639Z,97749.91
2022-11-27T06:41:44.035Z,97748.53
2022-11-27T06:44:11.009Z,97747.88
2022-11-27T06:46:37.474Z,97753.16
2022-11-27T06:49:03.896Z,97752.28
2022-11-27T06:51:52.701Z,97754.84
2022-11-27T06:54:19.117Z,97756.50
2022-11-27T06:56:45.655Z,97762.38
2022-11-27T06:59:12.916Z,97760.53
2022-11-27T07:01:39.420Z,97768.06
2022-11-27T07:04:06.044Z,97761.09
2022-11-27T07:06:32.589Z,97760.94
2022-11-27T07:08:59.225Z,97753.06
2022-11-27T07:11:26.504Z,97761.59
2022-11-27T07:13:54.265Z,97761.53
2022-11-27T07:16:20.795Z,97752.69
2022-11-27T07:18:48.584Z,97755.78
2022-11-27T07:21:15.170Z,97759.56
2022-11-27T07:23:41.585Z,97759.56
2022-11-27T07:26:15.113Z,97762.03
2022-11-27T07:28:43.836Z,97772.97
2022-11-27T07:31:10.982Z,97771.88
2022-11-27T07:33:37.486Z,97769.84
2022-11-27T07:36:08.140Z,97772.34
2022-11-27T07:38:34.613Z,97771.25
2022-11-27T07:41:01.691Z,97774.47
2022-11-27T07:43:28.563Z,97769.16
2022-11-27T07:45:55.124Z,97770.72
2022-11-27T07:48:21.713Z,97764.56
2022-11-27T07:50:48.129Z,97767.78
2022-11-27T07:53:14.540Z,97769.34
2022-11-27T07:55:41.134Z,97775.06
2022-11-27T07:58:07.897Z,97779.94
2022-11-27T08:00:34.523Z,97783.06
2022-11-27T08:03:01.188Z,97774.44
2022-11-27T08:05:27.690Z,97778.56
2022-11-27T08:07:54.162Z,97775.72
2022-11-27T08:10:20.698Z,97778.94
2022-11-27T08:12:47.307Z,97773.91
2022-11-27T08:15:13.713Z,97768.91
2022-11-27T08:17:40.284Z,97772.50
2022-11-27T08:20:07.256Z,97775.91
2022-11-27T08:22:33.869Z,97775.81
2022-11-27T08:25:00.302Z,97775.72
2022-11-27T08:27:26.758Z,97780.78
2022-11-27T08:29:53.351Z,97784.19
2022-11-27T08:32:19.809Z,97780.03
2022-11-27T08:34:46.216Z,97778.75
2022-11-27T08:37:12.626Z,97774.44
2022-11-27T08:39:39.141Z,97779.19
2022-11-27T08:42:05.626Z,97783.63
2022-11-27T08:44:32.027Z,97781.69
2022-11-27T08:46:58.459Z,97773.06
2022-11-27T08:49:24.967Z,97767.09
2022-11-27T08:51:51.441Z,97772.78
2022-11-27T08:54:17.918Z,97773.25
2022-11-27T08:56:44.489Z,97774.50
2022-11-27T08:59:11.141Z,97764.28
2022-11-27T09:01:37.624Z,97755.53
2022-11-27T09:04:04.237Z,97756.13
2022-11-27T09:06:31.392Z,97759.47
2022-11-27T09:09:01.040Z,97759.81
2022-11-27T09:11:27.997Z,97759.69
2022-11-27T09:13:54.478Z,97755.56
2022-11-27T09:16:21.582Z,97755.66
2022-11-27T09:18:48.478Z,97760.59
2022-11-27T09:21:15.211Z,97755.84
2022-11-27T09:23:41.682Z,97753.59
2022-11-27T09:26:12.103Z,97752.47
2022-11-27T09:28:38.686Z,97749.78
2022-11-27T09:31:05.598Z,97745.97
2022-11-27T09:33:33.907Z,97748.84
2022-11-27T09:36:30.130Z,97744.81
2022-11-27T09:38:58.078Z,97738.44
2022-11-27T09:41:39.653Z,97735.25
2022-11-27T09:44:25.023Z,97738.84
2022-11-27T09:46:51.683Z,97737.38
2022-11-27T09:49:20.069Z,97734.19
2022-11-27T09:52:00.314Z,97734.09
2022-11-27T09:54:29.773Z,97738.72
2022-11-27T09:56:56.423Z,97731.09
2022-11-27T09:59:24.068Z,97731.81
2022-11-27T10:01:51.209Z,97731.50
2022-11-27T10:04:18.414Z,97726.16
2022-11-27T10:06:51.289Z,97726.25
2022-11-27T10:09:50.162Z,97720.78
2022-11-27T10:12:16.563Z,97723.25
2022-11-27T10:14:43.158Z,97721.25
2022-11-27T10:17:13.147Z,97728.28
2022-11-27T10:19:51.854Z,97719.28
2022-11-27T10:22:38.692Z,97719.59
2022-11-27T10:25:08.184Z,97710.22
2022-11-27T10:27:45.348Z,97706.41
2022-11-27T10:30:15.667Z,97711.25
2022-11-27T10:32:57.576Z,97706.94
2022-11-27T10:35:28.120Z,97698.97
2022-11-27T10:37:54.554Z,97696.00
2022-11-27T10:40:27.165Z,97694.06
2022-11-27T10:43:08.944Z,97696.63
2022-11-27T10:45:35.392Z,97688.69
2022-11-27T10:48:01.832Z,97694.47
2022-11-27T10:50:28.342Z,97687.38
2022-11-27T10:52:55.961Z,97683.63
2022-11-27T10:55:28.785Z,97678.19
2022-11-27T10:58:02.744Z,97671.38
2022-11-27T11:00:29.167Z,97666.72
2022-11-27T11:02:59.573Z,97676.84
2022-11-27T11:05:45.464Z,97671.69
2022-11-27T11:08:16.510Z,97664.44
2022-11-27T11:10:44.157Z,97660.63
2022-11-27T11:13:10.558Z,97651.53
2022-11-27T11:15:56.385Z,97647.78
2022-11-27T11:18:25.857Z,97645.41
2022-11-27T11:21:02.892Z,97647.47
2022-11-27T11:23:31.057Z,97649.56
2022-11-27T11:25:59.194Z,97649.44
2022-11-27T11:28:25.691Z,97640.06
2022-11-27T11:31:00.900Z,97636.53
2022-11-27T11:33:27.583Z,97642.94
2022-11-27T11:35:54.761Z,97632.50
2022-11-27T11:38:24.068Z,97632.50
2022-11-27T11:40:58.379Z,97632.50
2022-11-27T11:43:37.331Z,97628.41
2022-11-27T11:46:08.556Z,97628.31
2022-11-27T11:48:35.734Z,97621.91
2022-11-27T11:51:08.357Z,97623.34
2022-11-27T11:53:35.974Z,97617.50
2022-11-27T11:56:05.511Z,97610.56
2022-11-27T11:58:31.988Z,97617.09
2022-11-27T12:01:30.854Z,97613.69
2022-11-27T12:04:03.504Z,97612.94
2022-11-27T12:06:35.943Z,97616.97
2022-11-27T12:09:11.550Z,97604.63
2022-11-27T12:11:56.862Z,97604.94
2022-11-27T12:14:26.986Z,97599.47
2022-11-27T12:17:04.570Z,97602.25
2022-11-27T12:19:35.143Z,97597.91
2022-11-27T12:22:01.577Z,97593.78
2022-11-27T12:24:46.337Z,97595.84
2022-11-27T12:27:21.289Z,97594.72
2022-11-27T12:29:53.555Z,97589.16
2022-11-27T12:32:22.973Z,97591.03
2022-11-27T12:34:52.778Z,97585.47
2022-11-27T12:37:32.119Z,97591.66
2022-11-27T12:40:18.932Z,97582.69
2022-11-27T12:42:49.264Z,97586.31
2022-11-27T12:45:17.989Z,97590.66
2022-11-27T12:47:46.882Z,97589.09
2022-11-27T12:50:13.368Z,97584.75
2022-11-27T12:52:40.823Z,97586.00
2022-11-27T12:55:12.428Z,97589.81
2022-11-27T12:57:38.963Z,97588.97
2022-11-27T13:00:06.504Z,97587.16
2022-11-27T13:02:35.109Z,97590.44
2022-11-27T13:05:02.890Z,97593.72
2022-11-27T13:07:29.301Z,97590.03
2022-11-27T13:10:12.911Z,97591.66
2022-11-27T13:12:42.382Z,97588.25
2022-11-27T13:15:15.528Z,97586.72
2022-11-27T13:17:42.671Z,97585.06
2022-11-27T13:20:14.531Z,97583.41
2022-11-27T13:22:41.025Z,97578.88
2022-11-27T13:25:11.103Z,97583.41
2022-11-27T13:27:37.757Z,97577.66
2022-11-27T13:30:05.563Z,97576.19
2022-11-27T13:32:33.468Z,97587.56
2022-11-27T13:35:00.531Z,97586.81
2022-11-27T13:37:27.207Z,97582.59
2022-11-27T13:40:04.367Z,97581.53
2022-11-27T13:42:30.924Z,97582.47
2022-11-27T13:44:58.829Z,97587.56
2022-11-27T13:47:25.705Z,97578.16
2022-11-27T13:50:03.309Z,97579.91
2022-11-27T13:52:30.264Z,97582.47
2022-11-27T13:54:57.448Z,97584.34
2022-11-27T13:57:24.164Z,97579.19
2022-11-27T13:59:57.850Z,97585.06
2022-11-27T14:02:24.541Z,97580.72
2022-11-27T14:04:55.863Z,97585.88
2022-11-27T14:07:23.044Z,97583.41
2022-11-27T14:09:53.000Z,97569.91
2022-11-27T14:12:26.918Z,97581.06
2022-11-27T14:15:16.345Z,97580.84
2022-11-27T14:17:43.417Z,97577.75
2022-11-27T14:20:10.048Z,97566.84
2022-11-27T14:23:10.972Z,97573.28
2022-11-27T14:25:38.058Z,97574.03
2022-11-27T14:28:04.568Z,97570.97
2022-11-27T14:30:32.490Z,97571.50
2022-11-27T14:32:59.213Z,97568.31
2022-11-27T14:35:26.272Z,97566.75
2022-11-27T14:37:52.831Z,97559.22
2022-11-27T14:40:24.131Z,97554.16
2022-11-27T14:42:50.627Z,97555.09
2022-11-27T14:45:21.288Z,97556.13
2022-11-27T14:47:52.526Z,97550.22
2022-11-27T14:50:19.180Z,97537.56
2022-11-27T14:52:47.159Z,97536.13
2022-11-27T14:55:16.686Z,97533.00
2022-11-27T14:57:43.411Z,97534.34
2022-11-27T15:00:16.112Z,97527.03
2022-11-27T15:02:42.769Z,97524.13
2022-11-27T15:05:25.669Z,97527.38
2022-11-27T15:07:53.291Z,97519.91
2022-11-27T15:10:30.783Z,97514.34
2022-11-27T15:12:57.401Z,97516.59
2022-11-27T15:15:24.429Z,97514.53
2022-11-27T15:17:51.948Z,97520.03
2022-11-27T15:20:22.082Z,97516.91
2022-11-27T15:22:49.620Z,97515.22
2022-11-27T15:25:28.105Z,97516.88
2022-11-27T15:27:54.780Z,97520.25
2022-11-27T15:30:21.480Z,97516.69
2022-11-27T15:32:51.754Z,97512.84
2022-11-27T15:35:22.473Z,97512.56
2022-11-27T15:37:48.928Z,97513.88
2022-11-27T15:40:28.052Z,97518.63
2022-11-27T15:42:54.540Z,97511.16
2022-11-27T15:45:20.962Z,97514.06
2022-11-27T15:47:47.406Z,97512.34
2022-11-27T15:50:14.903Z,97513.81
2022-11-27T15:52:41.572Z,97511.91
2022-11-27T15:55:08.474Z,97501.41
2022-11-27T15:57:34.906Z,97506.38
2022-11-27T16:00:01.330Z,97508.66
2022-11-27T16:02:30.441Z,97500.91
2022-11-27T16:04:57.075Z,97513.63
2022-11-27T16:07:23.577Z,97508.75
2022-11-27T16:09:50.221Z,97506.38
2022-11-27T16:12:16.880Z,97508.00
2022-11-27T16:14:43.572Z,97499.66
2022-11-27T16:17:10.238Z,97494.63
2022-11-27T16:19:37.028Z,97496.13
2022-11-27T16:22:03.643Z,97481.53
2022-11-27T16:24:30.215Z,97482.75
2022-11-27T16:26:56.628Z,97480.47
2022-11-27T16:29:23.080Z,97485.75
2022-11-27T16:31:49.867Z,97485.91
2022-11-27T16:34:16.506Z,97491.44
2022-11-27T16:36:45.982Z,97484.09
2022-11-27T16:39:12.438Z,97475.91
2022-11-27T16:41:39.932Z,97474.50
2022-11-27T16:44:10.305Z,97476.72
2022-11-27T16:46:39.087Z,97476.53
2022-11-27T16:49:06.756Z,97472.84
2022-11-27T16:51:33.948Z,97462.75
2022-11-27T16:54:01.556Z,97464.63
2022-11-27T16:56:28.545Z,97460.00
2022-11-27T16:59:00.908Z,97459.31
2022-11-27T17:01:30.291Z,97458.56
2022-11-27T17:03:56.752Z,97469.78
2022-11-27T17:06:25.652Z,97475.81
2022-11-27T17:08:53.360Z,97475.53
2022-11-27T17:11:20.916Z,97472.53
2022-11-27T17:13:47.785Z,97469.69
2022-11-27T17:16:14.395Z,97464.19
2022-11-27T17:18:41.127Z,97465.31
2022-11-27T17:21:11.985Z,97467.22
2022-11-27T17:23:38.463Z,97467.38
2022-11-27T17:26:08.487Z,97474.13
2022-11-27T17:28:35.131Z,97469.00
2022-11-27T17:31:01.668Z,97471.28
2022-11-27T17:33:28.467Z,97482.78
2022-11-27T17:35:54.996Z,97470.38
2022-11-27T17:38:21.426Z,97469.91
2022-11-27T17:40:48.383Z,97463.31
2022-11-27T17:43:14.804Z,97472.28
2022-11-27T17:45:41.690Z,97465.03
2022-11-27T17:48:08.151Z,97470.56
2022-11-27T17:50:34.711Z,97476.28
2022-11-27T17:53:01.584Z,97468.34
2022-11-27T17:55:28.025Z,97473.25
2022-11-27T17:57:54.853Z,97470.34
2022-11-27T18:00:21.325Z,97464.69
2022-11-27T18:02:47.929Z,97459.38
2022-11-27T18:05:14.524Z,97452.69
2022-11-27T18:07:41.079Z,97451.09
2022-11-27T18:10:08.260Z,97447.81
2022-11-27T18:12:34.902Z,97440.22
2022-11-27T18:15:01.660Z,97446.16
2022-11-27T18:17:28.648Z,97447.09
2022-11-27T18:19:57.187Z,97450.38
2022-11-27T18:22:24.308Z,97437.44
2022-11-27T18:24:50.727Z,97428.66
2022-11-27T18:27:17.928Z,97429.41
2022-11-27T18:29:45.248Z,97434.44
2022-11-27T18:32:12.186Z,97421.53
2022-11-27T18:34:38.865Z,97425.59
2022-11-27T18:37:05.430Z,97418.66
2022-11-27T18:39:32.111Z,97420.28
2022-11-27T18:41:58.760Z,97407.44
2022-11-27T18:44:57.338Z,97417.72
2022-11-27T18:47:23.792Z,97410.00
2022-11-27T18:49:50.310Z,97415.13
2022-11-27T18:52:16.812Z,97405.03
2022-11-27T18:54:44.222Z,97396.84
2022-11-27T18:57:11.334Z,97398.84
2022-11-27T18:59:38.593Z,97396.50
2022-11-27T19:02:05.347Z,97392.16
2022-11-27T19:04:32.020Z,97401.50
2022-11-27T19:06:58.468Z,97393.72
2022-11-27T19:09:25.029Z,97396.94
2022-11-27T19:11:51.460Z,97389.16
2022-11-27T19:14:17.875Z,97391.47
2022-11-27T19:16:46.524Z,97392.22
2022-11-27T19:19:52.336Z,97388.41
2022-11-27T19:22:00.686Z,97391.88
2022-11-27T19:24:27.124Z,97387.56
2022-11-27T19:26:53.795Z,97384.09
2022-11-27T19:29:20.211Z,97379.75
2022-11-27T19:31:46.705Z,97379.66
2022-11-27T19:34:13.755Z,97382.94
2022-11-27T19:36:40.206Z,97377.75
2022-11-27T19:39:08.062Z,97379.19
2022-11-27T19:41:34.728Z,97377.31
2022-11-27T19:44:01.951Z,97377.56
2022-11-27T19:46:29.452Z,97376.06
2022-11-27T19:48:56.739Z,97384.53
2022-11-27T19:51:23.958Z,97376.06
2022-11-27T19:53:50.824Z,97372.69
2022-11-27T19:56:17.234Z,97371.88
2022-11-27T19:58:43.821Z,97371.88
2022-11-27T20:01:15.619Z,97371.81
2022-11-27T20:03:42.496Z,97370.78
2022-11-27T20:06:10.157Z,97368.06
2022-11-27T20:08:36.705Z,97367.16
2022-11-27T20:11:04.306Z,97369.53
2022-11-27T20:13:30.829Z,97368.63
2022-11-27T20:15:57.475Z,97375.06
2022-11-27T20:18:23.949Z,97368.47
2022-11-27T20:20:50.565Z,97376.25
2022-11-27T20:23:17.086Z,97378.94
2022-11-27T20:25:43.629Z,97370.63
2022-11-27T20:28:10.135Z,97386.16
2022-11-27T20:30:38.803Z,97386.97
2022-11-27T20:33:07.668Z,97392.19
2022-11-27T20:35:34.479Z,97386.41
2022-11-27T20:38:01.012Z,97386.41
2022-11-27T20:40:28.474Z,97383.03
2022-11-27T20:42:55.014Z,97383.94
2022-11-27T20:45:21.616Z,97378.72
2022-11-27T20:47:48.272Z,97359.97
2022-11-27T20:50:14.721Z,97363.53
2022-11-27T20:52:41.178Z,97361.03
2022-11-27T20:55:07.844Z,97360.97
2022-11-27T20:57:34.294Z,97364.47
2022-11-27T21:00:00.704Z,97361.97
2022-11-27T21:02:27.198Z,97362.88
2022-11-27T21:04:53.739Z,97361.31
2022-11-27T21:07:20.559Z,97357.84
2022-11-27T21:09:47.138Z,97359.59
2022-11-27T21:12:13.884Z,97357.84
2022-11-27T21:14:40.577Z,97352.88
2022-11-27T21:17:07.141Z,97348.69
2022-11-27T21:19:33.616Z,97349.50
2022-11-27T21:22:00.120Z,97337.59
2022-11-27T21:24:28.578Z,97332.59
2022-11-27T21:26:55.227Z,97322.50
2022-11-27T21:29:25.490Z,97320.13
2022-11-27T21:31:52.995Z,97318.72
2022-11-27T21:34:19.461Z,97315.69
2022-11-27T21:36:45.946Z,97314.28
2022-11-27T21:39:12.668Z,97319.91
2022-11-27T21:41:39.144Z,97314.38
2022-11-27T21:44:05.597Z,97307.19
2022-11-27T21:46:32.215Z,97297.38
2022-11-27T21:48:59.169Z,97297.81
2022-11-27T21:51:26.480Z,97299.84
2022-11-27T21:53:53.151Z,97295.97
2022-11-27T21:56:19.956Z,97291.28
2022-11-27T21:58:46.598Z,97290.59
2022-11-27T22:01:14.576Z,97291.59
2022-11-27T22:03:42.989Z,97281.09
2022-11-27T22:06:16.417Z,97285.81
2022-11-27T22:08:43.250Z,97281.31
2022-11-27T22:11:10.438Z,97270.53
2022-11-27T22:13:36.860Z,97273.44
2022-11-27T22:16:08.057Z,97274.59
2022-11-27T22:18:34.513Z,97273.94
2022-11-27T22:21:07.503Z,97274.91
2022-11-27T22:23:34.223Z,97269.88
2022-11-27T22:26:07.451Z,97269.16
2022-11-27T22:28:37.317Z,97267.66
2022-11-27T22:31:07.779Z,97263.59
2022-11-27T22:33:37.198Z,97271.56
2022-11-27T22:36:21.970Z,97264.06
2022-11-27T22:38:49.044Z,97262.72
2022-11-27T22:41:15.833Z,97269.72
2022-11-27T22:43:42.735Z,97270.63
2022-11-27T22:46:10.622Z,97268.78
2022-11-27T22:48:37.116Z,97277.44
2022-11-27T22:51:03.728Z,97270.63
2022-11-27T22:53:30.209Z,97268.41
2022-11-27T22:55:56.735Z,97277.38
2022-11-27T22:58:23.208Z,97279.09
2022-11-27T23:00:56.308Z,97279.91
2022-11-27T23:03:23.103Z,97278.09
2022-11-27T23:06:23.655Z,97278.72
2022-11-27T23:08:50.300Z,97282.09
2022-11-27T23:11:17.832Z,97285.97
2022-11-27T23:13:49.482Z,97281.72
2022-11-27T23:16:16.528Z,97287.50
2022-11-27T23:18:42.992Z,97282.25
2022-11-27T23:21:10.291Z,97292.22
2022-11-27T23:23:36.722Z,97279.16
2022-11-27T23:26:06.785Z,97278.78
2022-11-27T23:28:33.387Z,97278.47
2022-11-27T23:31:28.945Z,97273.03
2022-11-27T23:33:53.000Z,97277.75
2022-11-27T23:36:19.466Z,97277.44
2022-11-27T23:38:45.978Z,97286.50
2022-11-27T23:41:13.686Z,97278.53
2022-11-27T23:43:40.188Z,97269.88
2022-11-27T23:46:07.088Z,97261.13
2022-11-27T23:48:33.747Z,97264.28
2022-11-27T23:51:00.370Z,97252.91
2022-11-27T23:53:27.879Z,97256.03
2022-11-27T23:55:54.500Z,97247.13
2022-11-27T23:58:20.902Z,97253.00
